Time;durP1;ratioP1;P1;durP2;ratioP2;P2;SDS_P1;SDS_P2;PMS_P1;PMS_P2;Temp;Humidity;BMP_temperature;BMP_pressure;BME280_temperature;BME280_humidity;BME280_pressure;Samples;Min_cycle;Max_cycle;Signal;HPM_P1;HPM_P2
2023/05/15 00:00:09;;;;;;;14.50;8.85;;;;;;;14.78;100.00;101397.56;5035957;28;20037;-67
2023/05/15 00:02:43;;;;;;;14.70;8.90;;;;;;;14.77;100.00;101395.94;5027896;28;20084;-66
2023/05/15 00:05:12;;;;;;;15.45;9.20;;;;;;;14.77;100.00;101393.19;5050308;28;20052;-67
2023/05/15 00:07:40;;;;;;;16.20;9.75;;;;;;;14.78;100.00;101394.00;5034326;28;20045;-67
2023/05/15 00:10:08;;;;;;;15.25;9.68;;;;;;;14.77;100.00;101398.69;5050017;28;20472;-67
2023/05/15 00:12:36;;;;;;;16.10;10.07;;;;;;;14.74;100.00;101396.47;5052155;28;20474;-66
2023/05/15 00:15:04;;;;;;;16.48;10.35;;;;;;;14.67;100.00;101402.28;5053761;28;20504;-67
2023/05/15 00:17:32;;;;;;;16.25;8.93;;;;;;;14.67;100.00;101385.84;5053102;28;20049;-66
2023/05/15 00:20:00;;;;;;;13.73;9.48;;;;;;;14.67;100.00;101382.25;5047924;28;20071;-68
2023/05/15 00:22:28;;;;;;;15.65;10.63;;;;;;;14.63;100.00;101382.00;5047263;28;20079;-67
2023/05/15 00:24:55;;;;;;;18.02;9.85;;;;;;;14.61;100.00;101381.47;5048851;28;20053;-68
2023/05/15 00:27:23;;;;;;;18.23;10.48;;;;;;;14.62;100.00;101376.78;5053321;28;20121;-68
2023/05/15 00:29:51;;;;;;;16.05;10.07;;;;;;;14.60;100.00;101377.09;5036939;28;20045;-67
2023/05/15 00:32:19;;;;;;;16.58;10.85;;;;;;;14.59;100.00;101369.94;5060704;28;20572;-67
2023/05/15 00:34:47;;;;;;;14.45;9.93;;;;;;;14.56;100.00;101375.19;5037274;28;20054;-68
2023/05/15 00:37:15;;;;;;;16.25;10.57;;;;;;;14.52;100.00;101368.59;5033395;28;20538;-67
2023/05/15 00:39:42;;;;;;;14.93;9.90;;;;;;;14.48;100.00;101369.16;5033694;28;20636;-68
2023/05/15 00:42:10;;;;;;;15.43;10.07;;;;;;;14.52;100.00;101371.34;5048320;28;20080;-68
2023/05/15 00:44:38;;;;;;;15.43;10.95;;;;;;;14.53;100.00;101376.53;5067776;28;20045;-68
2023/05/15 00:47:06;;;;;;;14.35;10.70;;;;;;;14.52;100.00;101374.06;5054676;28;20103;-68
2023/05/15 00:49:34;;;;;;;17.08;11.95;;;;;;;14.50;100.00;101377.09;5028347;28;20386;-68
2023/05/15 00:52:04;;;;;;;16.90;11.38;;;;;;;14.38;100.00;101380.19;5070329;28;20086;-68
2023/05/15 00:54:32;;;;;;;16.92;12.60;;;;;;;14.29;100.00;101368.13;5037403;28;20055;-67
2023/05/15 00:57:00;;;;;;;17.63;12.45;;;;;;;14.26;100.00;101366.78;5036230;28;20051;-67
2023/05/15 00:59:30;;;;;;;16.70;12.75;;;;;;;14.24;100.00;101368.97;5019749;28;20041;-67
2023/05/15 01:01:57;;;;;;;16.75;12.82;;;;;;;14.23;100.00;101359.09;5032049;28;20063;-68
2023/05/15 01:04:25;;;;;;;21.30;13.90;;;;;;;14.23;100.00;101366.50;5032998;28;20494;-69
2023/05/15 01:06:53;;;;;;;17.42;13.20;;;;;;;14.19;100.00;101359.94;5050344;28;20060;-67
2023/05/15 01:09:23;;;;;;;18.48;12.98;;;;;;;14.14;100.00;101358.06;5053420;28;20049;-67
2023/05/15 01:11:54;;;;;;;24.58;14.95;;;;;;;14.06;100.00;101366.81;5069362;28;20119;-67
2023/05/15 01:14:22;;;;;;;17.70;13.63;;;;;;;13.99;100.00;101363.56;5058925;28;20045;-67
2023/05/15 01:16:50;;;;;;;19.27;14.50;;;;;;;13.96;100.00;101359.47;5051978;28;20120;-67
2023/05/15 01:19:18;;;;;;;19.55;13.60;;;;;;;13.94;100.00;101364.38;5019602;28;20124;-66
2023/05/15 01:22:15;;;;;;;17.98;13.93;;;;;;;13.94;100.00;101358.91;5064821;28;20051;-67
2023/05/15 01:25:06;;;;;;;18.52;14.30;;;;;;;13.94;100.00;101358.91;5072270;28;20083;-67
2023/05/15 01:27:34;;;;;;;19.73;14.60;;;;;;;13.94;100.00;101353.44;5055012;28;20063;-66
2023/05/15 01:30:26;;;;;;;19.77;14.18;;;;;;;13.94;100.00;101347.94;5039263;28;20094;-67
2023/05/15 01:33:18;;;;;;;18.02;14.63;;;;;;;13.93;100.00;101346.31;5071060;28;20401;-68
2023/05/15 01:36:00;;;;;;;21.85;14.27;;;;;;;13.90;100.00;101346.84;5036282;28;20509;-68
2023/05/15 01:38:38;;;;;;;18.13;14.63;;;;;;;13.90;100.00;101346.84;5051531;28;20052;-68
2023/05/15 01:41:36;;;;;;;16.42;12.93;;;;;;;13.90;100.00;101344.13;5043739;28;20495;-68
2023/05/15 01:44:11;;;;;;;18.67;15.40;;;;;;;13.91;100.00;101347.69;5029033;28;20127;-68
2023/05/15 01:46:43;;;;;;;23.83;15.68;;;;;;;13.85;100.00;101338.66;5052140;28;20072;-67
2023/05/15 01:49:13;;;;;;;23.00;15.32;;;;;;;13.84;100.00;101347.97;5035058;28;20041;-67
2023/05/15 01:51:42;;;;;;;21.35;16.65;;;;;;;13.77;100.00;101347.44;5055168;28;20049;-67
2023/05/15 01:54:10;;;;;;;22.10;16.20;;;;;;;13.75;100.00;101338.69;5038965;28;20048;-66
2023/05/15 01:56:40;;;;;;;22.05;17.25;;;;;;;13.76;100.00;101345.81;5073446;28;20053;-67
2023/05/15 01:59:08;;;;;;;22.05;16.85;;;;;;;13.73;100.00;101347.16;5034145;28;20392;-67
2023/05/15 02:01:36;;;;;;;20.45;16.88;;;;;;;13.67;100.00;101337.31;5053827;28;20497;-66
2023/05/15 02:04:04;;;;;;;21.30;17.15;;;;;;;13.65;100.00;101336.78;5035607;28;20064;-67
2023/05/15 02:06:32;;;;;;;23.48;18.42;;;;;;;13.66;100.00;101338.41;5051887;28;20049;-66
2023/05/15 02:09:02;;;;;;;21.73;18.40;;;;;;;13.67;100.00;101336.50;5052080;28;20060;-67
2023/05/15 02:11:30;;;;;;;25.13;19.35;;;;;;;13.63;100.00;101334.31;5035601;28;20048;-67
2023/05/15 02:13:58;;;;;;;23.83;19.95;;;;;;;13.61;100.00;101333.78;5032552;28;20046;-67
2023/05/15 02:16:26;;;;;;;25.05;19.80;;;;;;;13.58;100.00;101334.31;5004259;28;20413;-67
2023/05/15 02:18:54;;;;;;;24.90;19.80;;;;;;;13.54;100.00;101337.88;5049568;28;20069;-67
2023/05/15 02:21:22;;;;;;;25.92;20.83;;;;;;;13.54;100.00;101335.13;5043216;28;20033;-67
2023/05/15 02:23:50;;;;;;;24.88;20.40;;;;;;;13.54;100.00;101333.25;5060448;28;20049;-68
2023/05/15 02:26:34;;;;;;;27.08;19.88;;;;;;;13.50;100.00;101331.34;5059578;28;20489;-67
2023/05/15 02:29:12;;;;;;;25.88;20.95;;;;;;;13.53;100.00;101328.84;5056830;28;20568;-67
2023/05/15 02:31:46;;;;;;;26.05;22.13;;;;;;;13.54;100.00;101326.94;5055311;28;20041;-67
2023/05/15 02:34:39;;;;;;;27.15;21.88;;;;;;;13.53;100.00;101325.28;5023078;28;20098;-66
2023/05/15 02:37:12;;;;;;;25.80;21.58;;;;;;;13.51;100.00;101328.31;5035348;28;20076;-67
2023/05/15 02:39:42;;;;;;;27.48;22.25;;;;;;;13.50;100.00;101328.59;5055566;28;20045;-67
2023/05/15 02:42:14;;;;;;;29.60;23.42;;;;;;;13.46;100.00;101325.56;5023021;28;20132;-67
2023/05/15 02:44:42;;;;;;;30.60;24.70;;;;;;;13.42;100.00;101333.53;5040548;28;20055;-67
2023/05/15 02:47:10;;;;;;;30.95;23.02;;;;;;;13.39;100.00;101338.72;5035492;28;20085;-67
2023/05/15 02:49:39;;;;;;;29.20;23.35;;;;;;;13.37;100.00;101338.16;5065132;28;20045;-66
2023/05/15 02:52:07;;;;;;;27.85;23.73;;;;;;;13.34;100.00;101327.78;5058754;28;20648;-67
2023/05/15 02:54:34;;;;;;;28.20;23.42;;;;;;;13.32;100.00;101346.38;5075858;28;20473;-67
2023/05/15 02:57:02;;;;;;;31.30;23.35;;;;;;;13.28;100.00;101335.16;5074623;28;20041;-60
2023/05/15 02:59:30;;;;;;;28.92;23.75;;;;;;;13.27;100.00;101343.59;5078412;28;20065;-62
2023/05/15 03:01:58;;;;;;;29.45;25.27;;;;;;;13.25;100.00;101341.13;5066504;28;20053;-65
2023/05/15 03:04:25;;;;;;;31.77;24.27;;;;;;;13.20;100.00;101332.94;5041224;28;20056;-65
2023/05/15 03:06:53;;;;;;;30.23;24.35;;;;;;;13.13;100.00;101335.97;5067134;28;20045;-61
2023/05/15 03:09:21;;;;;;;30.85;24.98;;;;;;;13.08;100.00;101335.09;5061917;28;20374;-62
2023/05/15 03:11:48;;;;;;;31.80;26.33;;;;;;;13.05;100.00;101331.00;5054110;28;20095;-64
2023/05/15 03:14:16;;;;;;;32.17;25.17;;;;;;;13.06;100.00;101324.47;5039885;28;20475;-67
2023/05/15 03:16:44;;;;;;;31.58;25.77;;;;;;;13.02;100.00;101328.81;5039415;28;20048;-66
2023/05/15 03:19:12;;;;;;;32.20;26.55;;;;;;;13.00;100.00;101331.81;5063727;28;20045;-67
2023/05/15 03:21:39;;;;;;;36.83;26.65;;;;;;;12.97;100.00;101331.56;5056240;28;20053;-66
2023/05/15 03:24:07;;;;;;;33.63;26.30;;;;;;;12.94;100.00;101329.34;5034728;28;20080;-66
2023/05/15 03:26:35;;;;;;;33.85;27.15;;;;;;;12.92;100.00;101331.56;5030908;28;20041;-67
2023/05/15 03:29:02;;;;;;;34.05;27.08;;;;;;;12.90;100.00;101328.25;5069326;28;20051;-67
2023/05/15 03:31:30;;;;;;;35.50;28.60;;;;;;;12.93;100.00;101330.44;5058454;28;20651;-67
2023/05/15 03:33:58;;;;;;;36.92;29.48;;;;;;;12.90;100.00;101323.59;5069604;28;20051;-67
2023/05/15 03:36:25;;;;;;;37.38;28.20;;;;;;;12.85;100.00;101325.53;5056029;28;20119;-66
2023/05/15 03:38:53;;;;;;;34.05;27.98;;;;;;;12.76;100.00;101317.84;5056040;28;20041;-67
2023/05/15 03:41:21;;;;;;;35.47;27.98;;;;;;;12.72;100.00;101314.03;5059982;28;20041;-67
2023/05/15 03:43:49;;;;;;;37.28;29.60;;;;;;;12.66;100.00;101315.09;5041330;28;20049;-67
2023/05/15 03:46:18;;;;;;;35.40;27.95;;;;;;;12.68;100.00;101315.63;5055814;28;20084;-67
2023/05/15 03:48:46;;;;;;;35.92;30.75;;;;;;;12.66;100.00;101312.34;5068711;28;20072;-67
2023/05/15 03:51:14;;;;;;;38.70;28.75;;;;;;;12.67;100.00;101316.72;5074235;28;20068;-67
2023/05/15 03:53:42;;;;;;;37.20;32.45;;;;;;;12.65;100.00;101318.06;5067306;28;20124;-67
2023/05/15 03:56:09;;;;;;;41.40;32.80;;;;;;;12.58;100.00;101316.44;5021275;28;20044;-67
2023/05/15 03:58:37;;;;;;;40.63;31.25;;;;;;;12.58;100.00;101323.81;5056425;28;20041;-68
2023/05/15 04:01:05;;;;;;;40.25;31.58;;;;;;;12.57;100.00;101322.16;5053977;28;20049;-67
2023/05/15 04:03:33;;;;;;;39.45;30.80;;;;;;;12.57;100.00;101314.78;5052039;28;20049;-67
2023/05/15 04:06:01;;;;;;;42.22;33.05;;;;;;;12.59;100.00;101322.72;5053212;28;20048;-67
2023/05/15 04:08:29;;;;;;;36.90;31.25;;;;;;;12.57;100.00;101317.50;5066692;28;20049;-67
2023/05/15 04:10:57;;;;;;;40.42;31.42;;;;;;;12.57;100.00;101311.22;5073497;28;20131;-67
2023/05/15 04:13:24;;;;;;;39.30;32.78;;;;;;;12.54;100.00;101309.84;5073023;28;20052;-67
2023/05/15 04:15:52;;;;;;;44.13;33.05;;;;;;;12.52;100.00;101308.47;5072347;28;20094;-68
2023/05/15 04:18:20;;;;;;;39.33;30.90;;;;;;;12.51;100.00;101307.66;5061869;28;20451;-69
2023/05/15 04:20:48;;;;;;;39.72;30.98;;;;;;;12.51;100.00;101310.41;5053136;28;20415;-68
2023/05/15 04:23:16;;;;;;;39.97;31.05;;;;;;;12.55;100.00;101316.13;5053173;28;20055;-68
2023/05/15 04:25:45;;;;;;;41.70;30.38;;;;;;;12.50;100.00;101313.41;5055064;28;20040;-67
2023/05/15 04:28:13;;;;;;;42.25;32.60;;;;;;;12.47;100.00;101312.03;5053755;28;20049;-67
2023/05/15 04:30:41;;;;;;;40.30;31.35;;;;;;;12.40;100.00;101308.72;5036884;28;20136;-67
2023/05/15 04:33:09;;;;;;;43.70;31.38;;;;;;;12.41;100.00;101313.13;5053500;28;20053;-67
2023/05/15 04:35:37;;;;;;;43.60;32.13;;;;;;;12.30;100.00;101320.44;5054032;28;20048;-67
2023/05/15 04:38:05;;;;;;;37.65;28.98;;;;;;;12.26;100.00;101319.31;5053757;28;20052;-68
2023/05/15 04:40:32;;;;;;;38.80;29.35;;;;;;;12.26;100.00;101327.50;5054121;28;20128;-67
2023/05/15 04:43:02;;;;;;;41.08;30.58;;;;;;;12.18;100.00;101333.50;5053834;28;20052;-67
2023/05/15 04:45:30;;;;;;;38.55;29.95;;;;;;;12.19;100.00;101337.88;5051447;28;20065;-68
2023/05/15 04:47:58;;;;;;;36.42;27.05;;;;;;;12.19;100.00;101339.78;5060649;28;20128;-67
2023/05/15 04:50:26;;;;;;;32.53;25.20;;;;;;;12.16;100.00;101343.88;5045372;28;20048;-67
2023/05/15 04:52:54;;;;;;;35.72;27.17;;;;;;;12.17;100.00;101348.25;5032261;28;20042;-67
2023/05/15 04:55:21;;;;;;;38.13;28.50;;;;;;;12.21;100.00;101352.09;5038511;28;20048;-67
2023/05/15 04:57:50;;;;;;;36.35;29.20;;;;;;;12.22;100.00;101356.47;5052306;28;20080;-68
2023/05/15 05:00:18;;;;;;;33.78;25.67;;;;;;;12.28;100.00;101358.13;5066490;28;20639;-66
2023/05/15 05:02:46;;;;;;;38.78;29.20;;;;;;;12.27;100.00;101359.22;5074236;28;20064;-67
2023/05/15 05:05:13;;;;;;;40.35;30.40;;;;;;;12.18;100.00;101363.56;5072609;28;20060;-66
2023/05/15 05:07:45;;;;;;;40.78;30.40;;;;;;;12.16;100.00;101363.00;5064863;28;20056;-66
2023/05/15 05:10:13;;;;;;;37.80;28.58;;;;;;;12.07;100.00;101353.66;5054231;28;20045;-69
2023/05/15 05:12:40;;;;;;;37.53;29.23;;;;;;;11.98;100.00;101355.22;5053552;28;20049;-68
2023/05/15 05:15:09;;;;;;;34.58;27.08;;;;;;;11.95;100.00;101356.59;5053711;28;20076;-67
2023/05/15 05:17:36;;;;;;;33.92;26.92;;;;;;;11.99;100.00;101354.16;5034480;28;20073;-69
2023/05/15 05:20:07;;;;;;;36.30;28.15;;;;;;;12.06;100.00;101357.47;5033141;28;20509;-68
2023/05/15 05:22:41;;;;;;;36.03;28.33;;;;;;;12.06;100.00;101362.94;5041175;28;20045;-67
2023/05/15 05:25:09;;;;;;;35.83;26.83;;;;;;;12.12;100.00;101361.88;5053463;28;20049;-67
2023/05/15 05:27:37;;;;;;;31.33;25.83;;;;;;;12.19;100.00;101359.72;5064631;28;20064;-68
2023/05/15 05:30:05;;;;;;;32.42;26.35;;;;;;;12.20;100.00;101361.38;4701347;28;10000253;-67
2023/05/15 05:32:33;;;;;;;31.88;27.05;;;;;;;12.18;100.00;101366.28;5048238;28;20049;-68
2023/05/15 05:35:02;;;;;;;35.65;26.90;;;;;;;12.21;100.00;101379.41;5048470;28;20685;-69
2023/05/15 05:37:30;;;;;;;35.53;27.90;;;;;;;12.24;100.00;101381.63;5059550;28;20052;-68
2023/05/15 05:39:57;;;;;;;35.00;27.85;;;;;;;12.26;100.00;101382.16;5068485;28;20047;-68
2023/05/15 05:42:25;;;;;;;35.08;29.02;;;;;;;12.27;100.00;101380.28;5069381;28;20774;-69
2023/05/15 05:44:54;;;;;;;36.63;29.45;;;;;;;12.22;100.00;101375.59;5056689;28;20041;-68
2023/05/15 05:47:21;;;;;;;36.63;29.30;;;;;;;12.19;100.00;101378.84;5050516;28;20049;-67
2023/05/15 05:49:49;;;;;;;36.33;29.83;;;;;;;12.23;100.00;101376.41;5048897;28;20579;-68
2023/05/15 05:52:16;;;;;;;37.78;28.38;;;;;;;12.24;100.00;101381.63;5035898;28;20481;-68
2023/05/15 05:54:46;;;;;;;38.78;29.65;;;;;;;12.23;100.00;101379.97;5052117;28;20052;-66
2023/05/15 05:57:14;;;;;;;33.28;27.38;;;;;;;12.28;100.00;101370.97;5063993;28;20044;-66
2023/05/15 05:59:42;;;;;;;32.45;25.65;;;;;;;12.35;100.00;101366.09;5057018;28;20057;-67
2023/05/15 06:02:10;;;;;;;30.27;25.80;;;;;;;12.39;100.00;101371.84;5035183;28;20093;-69
2023/05/15 06:04:38;;;;;;;34.28;26.05;;;;;;;12.41;100.00;101375.97;5030939;28;20072;-68
2023/05/15 06:07:06;;;;;;;28.70;22.17;;;;;;;12.42;100.00;101374.06;5048454;28;20052;-68
2023/05/15 06:09:34;;;;;;;23.90;21.33;;;;;;;12.42;100.00;101366.66;5052503;28;20053;-68
2023/05/15 06:12:03;;;;;;;26.08;20.02;;;;;;;12.43;100.00;101381.16;5051718;28;20041;-69
2023/05/15 06:14:31;;;;;;;25.42;18.92;;;;;;;12.43;100.00;101379.22;5052231;28;20509;-68
2023/05/15 06:17:00;;;;;;;20.63;17.67;;;;;;;12.38;100.00;101381.94;5053647;28;20044;-68
2023/05/15 06:19:29;;;;;;;23.30;18.95;;;;;;;12.35;100.00;101375.09;5052242;28;20057;-68
2023/05/15 06:21:57;;;;;;;24.35;18.48;;;;;;;12.31;100.00;101382.22;5052573;28;20044;-69
2023/05/15 06:24:25;;;;;;;21.25;18.10;;;;;;;12.31;100.00;101379.47;5055860;28;20057;-67
2023/05/15 06:26:53;;;;;;;22.38;17.95;;;;;;;12.26;100.00;101384.88;5060225;28;20083;-67
2023/05/15 06:29:21;;;;;;;22.73;17.50;;;;;;;12.27;100.00;101402.94;5056863;28;20064;-67
2023/05/15 06:31:48;;;;;;;24.70;17.95;;;;;;;12.27;100.00;101391.19;5059588;28;20049;-67
2023/05/15 06:34:16;;;;;;;20.48;16.42;;;;;;;12.30;100.00;101391.47;5064680;28;20036;-68
2023/05/15 06:36:44;;;;;;;21.67;16.55;;;;;;;12.36;100.00;101390.44;5059753;28;20053;-67
2023/05/15 06:39:12;;;;;;;25.65;17.65;;;;;;;12.39;100.00;101393.69;5055768;28;20060;-67
2023/05/15 06:41:39;;;;;;;22.70;16.52;;;;;;;12.36;100.00;101387.69;5038756;28;20060;-67
2023/05/15 06:44:12;;;;;;;22.23;15.93;;;;;;;12.41;100.00;101380.59;5038867;28;20053;-66
2023/05/15 06:46:39;;;;;;;26.70;17.17;;;;;;;12.41;100.00;101384.16;5041898;28;20459;-66
2023/05/15 06:49:07;;;;;;;21.45;16.73;;;;;;;12.46;100.00;101389.66;5085576;28;20048;-66
2023/05/15 06:51:35;;;;;;;22.45;16.75;;;;;;;12.48;100.00;101378.44;5085904;28;20060;-67
2023/05/15 06:54:02;;;;;;;23.48;17.65;;;;;;;12.52;100.00;101387.75;5066594;28;20079;-66
2023/05/15 06:56:30;;;;;;;19.95;14.65;;;;;;;12.53;100.00;101372.97;5074237;28;20049;-66
2023/05/15 06:58:57;;;;;;;23.58;19.58;;;;;;;12.54;100.00;101374.66;5068192;28;20056;-66
2023/05/15 07:01:25;;;;;;;21.20;16.52;;;;;;;12.55;100.00;101370.81;5031717;28;20047;-65
2023/05/15 07:03:53;;;;;;;23.73;18.73;;;;;;;12.56;100.00;101378.75;5047335;28;20138;-66
2023/05/15 07:06:22;;;;;;;23.00;17.42;;;;;;;12.54;100.00;101377.38;5046781;28;20056;-65
2023/05/15 07:08:49;;;;;;;19.08;16.30;;;;;;;12.52;100.00;101371.34;5057608;28;20051;-66
2023/05/15 07:11:17;;;;;;;25.13;19.55;;;;;;;12.54;100.00;101380.94;5049549;28;20415;-65
2023/05/15 07:13:45;;;;;;;26.23;18.30;;;;;;;12.56;100.00;101378.75;5035358;28;20401;-65
2023/05/15 07:16:13;;;;;;;24.50;18.55;;;;;;;12.57;100.00;101374.09;5045545;28;20049;-66
2023/05/15 07:18:40;;;;;;;25.77;18.13;;;;;;;12.56;100.00;101367.00;5055978;28;20044;-67
2023/05/15 07:21:08;;;;;;;21.17;16.83;;;;;;;12.60;98.77;101365.34;5054259;28;20044;-68
2023/05/15 07:23:36;;;;;;;20.38;16.67;;;;;;;12.64;98.59;101376.59;5039355;28;20064;-67
2023/05/15 07:26:04;;;;;;;24.38;17.02;;;;;;;12.67;98.35;101376.06;5067918;28;20049;-67
2023/05/15 07:28:32;;;;;;;22.50;18.95;;;;;;;12.70;99.19;101368.16;5075499;28;20049;-66
2023/05/15 07:30:59;;;;;;;25.10;19.60;;;;;;;12.70;99.70;101379.09;5029531;28;20509;-66
2023/05/15 07:33:29;;;;;;;26.60;23.02;;;;;;;12.66;99.92;101375.22;5038582;28;20053;-67
2023/05/15 07:35:57;;;;;;;24.92;21.45;;;;;;;12.62;100.00;101376.84;5046547;28;20077;-66
2023/05/15 07:38:25;;;;;;;28.08;22.90;;;;;;;12.62;100.00;101368.66;5053060;28;20468;-66
2023/05/15 07:40:52;;;;;;;26.63;22.83;;;;;;;12.70;100.00;101362.69;5052526;28;20493;-67
2023/05/15 07:43:20;;;;;;;28.27;20.40;;;;;;;12.84;100.00;101357.50;5054347;28;20053;-66
2023/05/15 07:45:48;;;;;;;26.05;19.67;;;;;;;12.98;100.00;101368.75;5067643;28;20097;-66
2023/05/15 07:48:17;;;;;;;28.90;24.42;;;;;;;12.99;97.59;101375.88;5074709;28;20076;-67
2023/05/15 07:50:46;;;;;;;27.45;21.90;;;;;;;12.94;96.81;101373.94;5073215;28;20415;-68
2023/05/15 07:53:17;;;;;;;31.02;23.92;;;;;;;12.86;97.75;101366.25;5049023;28;20049;-66
2023/05/15 07:55:45;;;;;;;28.60;24.10;;;;;;;12.87;99.07;101375.28;5062382;28;20044;-66
2023/05/15 07:58:13;;;;;;;29.48;24.70;;;;;;;12.88;98.42;101366.00;5073582;28;20132;-68
2023/05/15 08:00:41;;;;;;;36.45;23.63;;;;;;;12.92;97.99;101361.63;5074628;28;20087;-67
2023/05/15 08:03:09;;;;;;;29.95;23.60;;;;;;;12.95;95.67;101363.81;5073336;28;20052;-67
2023/05/15 08:05:37;;;;;;;29.42;24.27;;;;;;;12.99;95.73;101360.28;5041368;28;20408;-67
2023/05/15 08:08:05;;;;;;;33.55;22.70;;;;;;;13.08;95.78;101362.47;5053447;28;20139;-67
2023/05/15 08:10:33;;;;;;;31.77;25.00;;;;;;;13.14;96.67;101362.22;5053702;28;20560;-66
2023/05/15 08:13:01;;;;;;;26.48;21.88;;;;;;;13.20;96.61;101343.88;5053144;28;20045;-67
2023/05/15 08:15:28;;;;;;;27.75;22.85;;;;;;;13.25;95.62;101354.00;5054345;28;20049;-66
2023/05/15 08:17:56;;;;;;;27.55;22.85;;;;;;;13.27;94.48;101354.56;5054429;28;20473;-67
2023/05/15 08:20:24;;;;;;;26.80;22.42;;;;;;;13.31;95.10;101347.47;5052892;28;20100;-67
2023/05/15 08:22:52;;;;;;;23.20;18.95;;;;;;;13.36;95.23;101352.94;5054397;28;20083;-67
2023/05/15 08:25:20;;;;;;;27.67;22.55;;;;;;;13.42;94.80;101347.22;5069184;28;20067;-66
2023/05/15 08:27:47;;;;;;;26.48;22.63;;;;;;;13.45;92.29;101356.78;5073036;28;20049;-67
2023/05/15 08:30:15;;;;;;;25.60;22.35;;;;;;;13.50;92.22;101345.03;5073254;28;20052;-66
2023/05/15 08:32:47;;;;;;;28.73;22.88;;;;;;;13.56;93.11;101350.19;5074162;28;20048;-66
2023/05/15 08:35:15;;;;;;;32.90;23.90;;;;;;;13.60;92.61;101358.69;5072887;28;20578;-67
2023/05/15 08:37:43;;;;;;;26.52;21.33;;;;;;;13.65;91.88;101358.69;5042421;28;20054;-67
2023/05/15 08:40:11;;;;;;;25.35;16.98;;;;;;;13.71;91.54;101362.22;5058956;28;20036;-67
2023/05/15 08:42:51;;;;;;;23.25;18.58;;;;;;;13.75;91.26;101355.09;5058741;28;20072;-67
2023/05/15 08:45:20;;;;;;;29.80;23.13;;;;;;;13.78;92.26;101349.91;5057690;28;20055;-67
2023/05/15 08:47:47;;;;;;;28.17;22.38;;;;;;;13.82;91.22;101358.38;5033983;28;20052;-67
2023/05/15 08:50:16;;;;;;;28.95;22.75;;;;;;;13.84;88.75;101356.19;5049639;28;20053;-66
2023/05/15 08:52:45;;;;;;;27.13;24.05;;;;;;;13.87;89.72;101355.63;5034325;28;20486;-66
2023/05/15 08:55:14;;;;;;;27.92;23.00;;;;;;;13.92;89.92;101361.09;5047399;28;20501;-68
2023/05/15 08:57:43;;;;;;;26.33;21.08;;;;;;;13.93;87.71;101354.53;5052377;28;20049;-67
2023/05/15 09:00:13;;;;;;;33.40;23.83;;;;;;;13.92;87.96;101355.63;5036582;28;20051;-66
2023/05/15 09:02:41;;;;;;;31.52;24.98;;;;;;;13.96;88.67;101353.97;5052546;28;20068;-68
2023/05/15 09:05:10;;;;;;;30.85;23.27;;;;;;;13.96;87.25;101347.69;5069721;28;20063;-67
2023/05/15 09:07:43;;;;;;;31.85;23.73;;;;;;;13.97;87.78;101347.38;5065279;28;20057;-67
2023/05/15 09:10:13;;;;;;;27.80;23.70;;;;;;;14.01;88.57;101353.97;5061409;28;20127;-66
2023/05/15 09:12:44;;;;;;;32.42;24.60;;;;;;;14.07;89.92;101358.34;5072983;28;20436;-67
2023/05/15 09:15:20;;;;;;;30.60;24.98;;;;;;;14.08;91.45;101359.16;5071877;28;20473;-66
2023/05/15 09:17:49;;;;;;;27.67;22.08;;;;;;;14.11;92.73;101352.28;5051393;28;20131;-66
2023/05/15 09:20:36;;;;;;;33.08;25.70;;;;;;;14.15;93.36;101354.19;5051979;28;20460;-67
2023/05/15 09:23:05;;;;;;;28.33;23.92;;;;;;;14.20;92.87;101361.59;5052168;28;20033;-66
2023/05/15 09:25:39;;;;;;;32.45;23.60;;;;;;;14.13;91.33;101358.31;5055170;28;20431;-67
2023/05/15 09:28:09;;;;;;;30.38;24.20;;;;;;;14.10;92.05;101358.88;5057510;28;20053;-67
2023/05/15 09:30:38;;;;;;;28.35;23.75;;;;;;;14.10;91.47;101350.66;5056548;28;20044;-67
2023/05/15 09:33:05;;;;;;;28.92;23.05;;;;;;;14.13;92.67;101352.84;5065743;28;20044;-66
2023/05/15 09:35:35;;;;;;;28.88;22.95;;;;;;;14.22;92.64;101357.47;5076770;28;20048;-66
2023/05/15 09:38:12;;;;;;;28.33;23.63;;;;;;;14.28;92.31;101341.81;5077283;28;20138;-67
2023/05/15 09:40:40;;;;;;;28.08;21.85;;;;;;;14.32;92.39;101342.91;5057854;28;20139;-66
2023/05/15 09:43:11;;;;;;;29.35;20.98;;;;;;;14.40;93.45;101350.53;5058889;28;20049;-67
2023/05/15 09:45:40;;;;;;;29.92;23.63;;;;;;;14.42;92.94;101348.34;5058497;28;20091;-66
2023/05/15 09:48:10;;;;;;;29.92;23.13;;;;;;;14.44;92.77;101351.63;5063329;28;20064;-67
2023/05/15 09:50:40;;;;;;;34.03;21.60;;;;;;;14.45;91.21;101345.03;5078275;28;20044;-66
2023/05/15 09:53:11;;;;;;;28.30;21.58;;;;;;;14.46;90.16;101343.94;5066938;28;20041;-68
2023/05/15 09:55:38;;;;;;;27.77;20.38;;;;;;;14.49;89.18;101337.06;5040226;28;20044;-66
2023/05/15 09:58:07;;;;;;;28.58;20.58;;;;;;;14.56;88.43;101345.03;5056409;28;20044;-66
2023/05/15 10:00:36;;;;;;;24.27;20.73;;;;;;;14.60;88.74;101337.84;5056898;28;20128;-65
2023/05/15 10:03:19;;;;;;;28.35;21.83;;;;;;;14.64;89.26;101341.69;5056216;28;20049;-67
2023/05/15 10:05:47;;;;;;;28.02;22.67;;;;;;;14.65;90.24;101348.81;5056959;28;20098;-67
2023/05/15 10:08:24;;;;;;;30.75;23.85;;;;;;;14.68;91.28;101345.50;5065588;28;20043;-66
2023/05/15 10:10:52;;;;;;;43.67;28.08;;;;;;;14.67;93.30;101349.34;5075769;28;20048;-67
2023/05/15 10:13:20;;;;;;;37.22;27.98;;;;;;;14.69;93.21;101358.09;5068447;28;20072;-67
2023/05/15 10:15:49;;;;;;;37.53;25.58;;;;;;;14.68;93.38;101356.47;5063442;28;20052;-67
2023/05/15 10:18:21;;;;;;;33.35;26.55;;;;;;;14.64;93.03;101358.13;5043404;28;20556;-66
2023/05/15 10:20:49;;;;;;;30.88;26.95;;;;;;;14.57;92.54;101357.63;5045332;28;20052;-66
2023/05/15 10:23:17;;;;;;;30.60;27.33;;;;;;;14.46;94.10;101365.06;5054605;28;20440;-67
2023/05/15 10:25:55;;;;;;;31.38;25.42;;;;;;;14.42;95.10;101369.44;5038551;28;20059;-67
2023/05/15 10:28:23;;;;;;;29.55;26.25;;;;;;;14.40;96.69;101372.47;5059856;28;20128;-67
2023/05/15 10:30:52;;;;;;;30.10;25.40;;;;;;;14.41;97.88;101365.09;5076795;28;20093;-67
2023/05/15 10:33:19;;;;;;;29.90;24.63;;;;;;;14.44;97.89;101368.06;5066280;28;20045;-67
2023/05/15 10:35:48;;;;;;;27.85;23.45;;;;;;;14.43;97.59;101377.41;5011822;28;20049;-66
2023/05/15 10:38:17;;;;;;;35.90;26.15;;;;;;;14.41;97.81;101363.16;5042142;28;20130;-66
2023/05/15 10:40:45;;;;;;;27.95;23.10;;;;;;;14.39;99.07;101362.63;5076245;28;20045;-66
2023/05/15 10:43:13;;;;;;;26.95;23.75;;;;;;;14.41;99.12;101367.81;5075262;28;20124;-67
2023/05/15 10:45:42;;;;;;;27.52;23.95;;;;;;;14.41;97.54;101363.16;5062903;28;20140;-67
2023/05/15 10:48:11;;;;;;;26.40;22.63;;;;;;;14.44;96.02;101367.25;5065371;28;20053;-67
2023/05/15 10:50:39;;;;;;;28.13;23.75;;;;;;;14.47;96.63;101356.53;5061164;28;20499;-65
2023/05/15 10:53:09;;;;;;;28.95;24.25;;;;;;;14.46;96.80;101354.91;5072585;28;20045;-63
2023/05/15 10:55:37;;;;;;;24.42;20.45;;;;;;;14.44;93.75;101351.63;5049710;28;20045;-65
2023/05/15 10:58:09;;;;;;;29.00;22.42;;;;;;;14.49;96.01;101354.34;5079738;28;20060;-66
2023/05/15 11:00:46;;;;;;;27.98;22.00;;;;;;;14.55;95.54;101351.59;5073536;28;20044;-62
2023/05/15 11:03:14;;;;;;;25.15;20.67;;;;;;;14.56;95.32;101354.06;5094149;28;20412;-65
2023/05/15 11:06:15;;;;;;;25.30;20.95;;;;;;;14.53;94.27;101360.09;5092199;28;20045;-65
2023/05/15 11:08:44;;;;;;;28.08;22.17;;;;;;;14.54;95.31;101367.25;5068007;28;20353;-65
2023/05/15 11:11:50;;;;;;;24.50;19.65;;;;;;;14.53;94.48;101365.56;5057136;28;20100;-65
2023/05/15 11:14:18;;;;;;;25.17;20.38;;;;;;;14.53;94.42;101359.25;5056949;28;20052;-66